sensor_id;sensor_type;location;lat;lon;timestamp;temperature;humidity
70300;HTU21D;57704;51.112;5.878;2022-12-22T00:01:35;11.25;86.81
70300;HTU21D;57704;51.112;5.878;2022-12-22T00:04:21;11.26;86.86
70300;HTU21D;57704;51.112;5.878;2022-12-22T00:07:06;11.28;86.95
70300;HTU21D;57704;51.112;5.878;2022-12-22T00:09:51;11.33;86.90
70300;HTU21D;57704;51.112;5.878;2022-12-22T00:12:36;11.34;86.90
70300;HTU21D;57704;51.112;5.878;2022-12-22T00:15:21;11.38;86.90
70300;HTU21D;57704;51.112;5.878;2022-12-22T00:18:13;11.40;86.83
70300;HTU21D;57704;51.112;5.878;2022-12-22T00:21:00;11.44;86.81
70300;HTU21D;57704;51.112;5.878;2022-12-22T00:23:45;11.43;86.74
70300;HTU21D;57704;51.112;5.878;2022-12-22T00:26:30;11.44;86.73
70300;HTU21D;57704;51.112;5.878;2022-12-22T00:29:16;11.43;86.63
70300;HTU21D;57704;51.112;5.878;2022-12-22T00:32:02;11.44;86.83
70300;HTU21D;57704;51.112;5.878;2022-12-22T00:34:48;11.45;86.76
70300;HTU21D;57704;51.112;5.878;2022-12-22T00:37:35;11.46;86.86
70300;HTU21D;57704;51.112;5.878;2022-12-22T00:40:26;11.46;86.84
70300;HTU21D;57704;51.112;5.878;2022-12-22T00:43:13;11.49;86.90
70300;HTU21D;57704;51.112;5.878;2022-12-22T00:46:00;11.49;86.83
70300;HTU21D;57704;51.112;5.878;2022-12-22T00:48:47;11.49;86.84
70300;HTU21D;57704;51.112;5.878;2022-12-22T00:51:33;11.51;86.85
70300;HTU21D;57704;51.112;5.878;2022-12-22T00:54:19;11.49;86.83
70300;HTU21D;57704;51.112;5.878;2022-12-22T00:57:05;11.48;86.92
70300;HTU21D;57704;51.112;5.878;2022-12-22T00:59:55;11.51;87.02
70300;HTU21D;57704;51.112;5.878;2022-12-22T01:02:40;11.53;86.98
70300;HTU21D;57704;51.112;5.878;2022-12-22T01:05:26;11.55;86.94
70300;HTU21D;57704;51.112;5.878;2022-12-22T01:08:11;11.60;86.98
70300;HTU21D;57704;51.112;5.878;2022-12-22T01:10:56;11.60;86.73
70300;HTU21D;57704;51.112;5.878;2022-12-22T01:13:41;11.57;86.75
70300;HTU21D;57704;51.112;5.878;2022-12-22T01:16:26;11.55;86.89
70300;HTU21D;57704;51.112;5.878;2022-12-22T01:19:10;11.59;86.86
70300;HTU21D;57704;51.112;5.878;2022-12-22T01:21:56;11.58;86.88
70300;HTU21D;57704;51.112;5.878;2022-12-22T01:24:42;11.58;86.90
70300;HTU21D;57704;51.112;5.878;2022-12-22T01:27:28;11.58;86.99
70300;HTU21D;57704;51.112;5.878;2022-12-22T01:30:13;11.57;87.22
70300;HTU21D;57704;51.112;5.878;2022-12-22T01:32:57;11.57;87.28
70300;HTU21D;57704;51.112;5.878;2022-12-22T01:35:42;11.59;87.32
70300;HTU21D;57704;51.112;5.878;2022-12-22T01:38:27;11.59;87.33
70300;HTU21D;57704;51.112;5.878;2022-12-22T01:41:18;11.61;87.37
70300;HTU21D;57704;51.112;5.878;2022-12-22T01:44:13;11.59;87.41
70300;HTU21D;57704;51.112;5.878;2022-12-22T01:47:37;11.58;87.51
70300;HTU21D;57704;51.112;5.878;2022-12-22T01:50:27;11.59;87.58
70300;HTU21D;57704;51.112;5.878;2022-12-22T01:53:21;11.58;87.51
70300;HTU21D;57704;51.112;5.878;2022-12-22T01:56:07;11.58;87.63
70300;HTU21D;57704;51.112;5.878;2022-12-22T01:58:59;11.59;87.64
70300;HTU21D;57704;51.112;5.878;2022-12-22T02:01:44;11.55;87.62
70300;HTU21D;57704;51.112;5.878;2022-12-22T02:04:35;11.55;87.68
70300;HTU21D;57704;51.112;5.878;2022-12-22T02:07:45;11.52;87.78
70300;HTU21D;57704;51.112;5.878;2022-12-22T02:18:20;11.53;87.93
70300;HTU21D;57704;51.112;5.878;2022-12-22T02:20:52;11.54;87.93
70300;HTU21D;57704;51.112;5.878;2022-12-22T02:26:30;11.59;88.00
70300;HTU21D;57704;51.112;5.878;2022-12-22T02:29:21;11.66;87.88
70300;HTU21D;57704;51.112;5.878;2022-12-22T02:32:08;11.71;87.71
70300;HTU21D;57704;51.112;5.878;2022-12-22T02:34:54;11.74;87.59
70300;HTU21D;57704;51.112;5.878;2022-12-22T02:44:15;11.88;87.08
70300;HTU21D;57704;51.112;5.878;2022-12-22T02:50:07;11.88;87.06
70300;HTU21D;57704;51.112;5.878;2022-12-22T02:52:54;11.85;87.14
70300;HTU21D;57704;51.112;5.878;2022-12-22T02:55:39;11.85;87.08
70300;HTU21D;57704;51.112;5.878;2022-12-22T02:58:24;11.82;87.14
70300;HTU21D;57704;51.112;5.878;2022-12-22T03:01:09;11.81;87.13
70300;HTU21D;57704;51.112;5.878;2022-12-22T03:03:54;11.79;87.34
70300;HTU21D;57704;51.112;5.878;2022-12-22T03:06:39;11.82;87.29
70300;HTU21D;57704;51.112;5.878;2022-12-22T03:09:24;11.81;87.32
70300;HTU21D;57704;51.112;5.878;2022-12-22T03:12:08;11.79;87.33
70300;HTU21D;57704;51.112;5.878;2022-12-22T03:14:53;11.77;87.47
70300;HTU21D;57704;51.112;5.878;2022-12-22T03:17:37;11.77;87.41
70300;HTU21D;57704;51.112;5.878;2022-12-22T03:20:22;11.76;87.48
70300;HTU21D;57704;51.112;5.878;2022-12-22T03:23:07;11.74;87.46
70300;HTU21D;57704;51.112;5.878;2022-12-22T03:25:51;11.75;87.51
70300;HTU21D;57704;51.112;5.878;2022-12-22T03:28:23;11.75;87.61
70300;HTU21D;57704;51.112;5.878;2022-12-22T03:30:58;11.79;87.60
70300;HTU21D;57704;51.112;5.878;2022-12-22T03:33:26;11.81;87.50
70300;HTU21D;57704;51.112;5.878;2022-12-22T03:35:52;11.79;87.52
70300;HTU21D;57704;51.112;5.878;2022-12-22T03:38:18;11.79;87.46
70300;HTU21D;57704;51.112;5.878;2022-12-22T03:40:45;11.79;87.47
70300;HTU21D;57704;51.112;5.878;2022-12-22T03:43:13;11.81;87.50
70300;HTU21D;57704;51.112;5.878;2022-12-22T03:45:58;11.79;87.57
70300;HTU21D;57704;51.112;5.878;2022-12-22T03:48:44;11.84;87.56
70300;HTU21D;57704;51.112;5.878;2022-12-22T03:51:31;11.89;87.49
70300;HTU21D;57704;51.112;5.878;2022-12-22T03:53:58;11.93;87.32
70300;HTU21D;57704;51.112;5.878;2022-12-22T03:56:24;11.96;87.25
70300;HTU21D;57704;51.112;5.878;2022-12-22T03:58:50;12.00;87.10
70300;HTU21D;57704;51.112;5.878;2022-12-22T04:01:16;12.01;86.98
70300;HTU21D;57704;51.112;5.878;2022-12-22T04:03:42;12.01;86.91
70300;HTU21D;57704;51.112;5.878;2022-12-22T04:06:09;12.01;86.86
70300;HTU21D;57704;51.112;5.878;2022-12-22T04:08:35;12.01;86.87
70300;HTU21D;57704;51.112;5.878;2022-12-22T04:11:01;12.02;86.92
70300;HTU21D;57704;51.112;5.878;2022-12-22T04:13:46;12.03;86.74
70300;HTU21D;57704;51.112;5.878;2022-12-22T04:16:12;12.02;86.68
70300;HTU21D;57704;51.112;5.878;2022-12-22T04:18:38;12.02;86.59
70300;HTU21D;57704;51.112;5.878;2022-12-22T04:21:04;12.00;86.77
70300;HTU21D;57704;51.112;5.878;2022-12-22T04:23:30;11.96;86.76
70300;HTU21D;57704;51.112;5.878;2022-12-22T04:25:56;11.91;86.90
70300;HTU21D;57704;51.112;5.878;2022-12-22T04:28:22;11.91;87.06
70300;HTU21D;57704;51.112;5.878;2022-12-22T04:30:49;11.94;87.01
70300;HTU21D;57704;51.112;5.878;2022-12-22T04:33:16;11.97;86.92
70300;HTU21D;57704;51.112;5.878;2022-12-22T04:35:42;11.94;86.86
70300;HTU21D;57704;51.112;5.878;2022-12-22T04:38:09;11.93;86.87
70300;HTU21D;57704;51.112;5.878;2022-12-22T04:40:35;11.94;86.90
70300;HTU21D;57704;51.112;5.878;2022-12-22T04:43:01;11.94;86.86
70300;HTU21D;57704;51.112;5.878;2022-12-22T04:45:27;11.97;86.77
70300;HTU21D;57704;51.112;5.878;2022-12-22T04:47:53;11.96;86.73
70300;HTU21D;57704;51.112;5.878;2022-12-22T04:50:19;11.94;86.70
70300;HTU21D;57704;51.112;5.878;2022-12-22T04:52:46;11.91;86.73
70300;HTU21D;57704;51.112;5.878;2022-12-22T04:55:12;11.89;86.82
70300;HTU21D;57704;51.112;5.878;2022-12-22T04:57:38;11.88;86.80
70300;HTU21D;57704;51.112;5.878;2022-12-22T05:00:05;11.86;86.80
70300;HTU21D;57704;51.112;5.878;2022-12-22T05:02:31;11.83;86.93
70300;HTU21D;57704;51.112;5.878;2022-12-22T05:04:57;11.82;86.99
70300;HTU21D;57704;51.112;5.878;2022-12-22T05:07:23;11.79;87.13
70300;HTU21D;57704;51.112;5.878;2022-12-22T05:09:50;11.79;87.22
70300;HTU21D;57704;51.112;5.878;2022-12-22T05:12:16;11.78;87.22
70300;HTU21D;57704;51.112;5.878;2022-12-22T05:15:01;11.77;87.32
70300;HTU21D;57704;51.112;5.878;2022-12-22T05:17:27;11.78;87.36
70300;HTU21D;57704;51.112;5.878;2022-12-22T05:19:53;11.75;87.39
70300;HTU21D;57704;51.112;5.878;2022-12-22T05:22:19;11.75;87.41
70300;HTU21D;57704;51.112;5.878;2022-12-22T05:24:45;11.73;87.41
70300;HTU21D;57704;51.112;5.878;2022-12-22T05:27:12;11.71;87.50
70300;HTU21D;57704;51.112;5.878;2022-12-22T05:29:38;11.74;87.40
70300;HTU21D;57704;51.112;5.878;2022-12-22T05:32:04;11.75;87.38
70300;HTU21D;57704;51.112;5.878;2022-12-22T05:34:30;11.77;87.30
70300;HTU21D;57704;51.112;5.878;2022-12-22T05:36:56;11.78;87.15
70300;HTU21D;57704;51.112;5.878;2022-12-22T05:39:22;11.79;87.09
70300;HTU21D;57704;51.112;5.878;2022-12-22T05:41:49;11.79;86.97
70300;HTU21D;57704;51.112;5.878;2022-12-22T05:44:15;11.78;86.90
70300;HTU21D;57704;51.112;5.878;2022-12-22T05:46:41;11.77;86.88
70300;HTU21D;57704;51.112;5.878;2022-12-22T05:49:07;11.74;86.90
70300;HTU21D;57704;51.112;5.878;2022-12-22T05:51:34;11.75;86.90
70300;HTU21D;57704;51.112;5.878;2022-12-22T05:54:00;11.74;86.84
70300;HTU21D;57704;51.112;5.878;2022-12-22T05:56:26;11.71;86.88
70300;HTU21D;57704;51.112;5.878;2022-12-22T05:58:52;11.69;86.87
70300;HTU21D;57704;51.112;5.878;2022-12-22T06:01:18;11.69;86.96
70300;HTU21D;57704;51.112;5.878;2022-12-22T06:03:44;11.69;86.94
70300;HTU21D;57704;51.112;5.878;2022-12-22T06:06:10;11.68;86.91
70300;HTU21D;57704;51.112;5.878;2022-12-22T06:08:36;11.66;86.99
70300;HTU21D;57704;51.112;5.878;2022-12-22T06:11:03;11.68;87.02
70300;HTU21D;57704;51.112;5.878;2022-12-22T06:13:29;11.70;87.03
70300;HTU21D;57704;51.112;5.878;2022-12-22T06:15:55;11.73;86.99
70300;HTU21D;57704;51.112;5.878;2022-12-22T06:18:21;11.77;86.90
70300;HTU21D;57704;51.112;5.878;2022-12-22T06:20:47;11.78;86.80
70300;HTU21D;57704;51.112;5.878;2022-12-22T06:23:15;11.79;86.73
70300;HTU21D;57704;51.112;5.878;2022-12-22T06:25:41;11.79;86.71
70300;HTU21D;57704;51.112;5.878;2022-12-22T06:28:07;11.79;86.61
70300;HTU21D;57704;51.112;5.878;2022-12-22T06:30:33;11.75;86.68
70300;HTU21D;57704;51.112;5.878;2022-12-22T06:33:00;11.75;86.79
70300;HTU21D;57704;51.112;5.878;2022-12-22T06:35:26;11.75;86.86
70300;HTU21D;57704;51.112;5.878;2022-12-22T06:37:52;11.75;86.85
70300;HTU21D;57704;51.112;5.878;2022-12-22T06:40:18;11.73;86.86
70300;HTU21D;57704;51.112;5.878;2022-12-22T06:42:44;11.76;86.84
70300;HTU21D;57704;51.112;5.878;2022-12-22T06:45:29;11.76;86.70
70300;HTU21D;57704;51.112;5.878;2022-12-22T06:47:55;11.71;86.74
70300;HTU21D;57704;51.112;5.878;2022-12-22T06:50:21;11.64;86.80
70300;HTU21D;57704;51.112;5.878;2022-12-22T06:52:47;11.60;87.01
70300;HTU21D;57704;51.112;5.878;2022-12-22T06:55:13;11.62;87.07
70300;HTU21D;57704;51.112;5.878;2022-12-22T06:57:39;11.60;86.97
70300;HTU21D;57704;51.112;5.878;2022-12-22T07:00:06;11.56;87.06
70300;HTU21D;57704;51.112;5.878;2022-12-22T07:02:32;11.53;87.07
70300;HTU21D;57704;51.112;5.878;2022-12-22T07:04:58;11.49;87.21
70300;HTU21D;57704;51.112;5.878;2022-12-22T07:07:24;11.47;87.28
70300;HTU21D;57704;51.112;5.878;2022-12-22T07:09:50;11.45;87.40
70300;HTU21D;57704;51.112;5.878;2022-12-22T07:12:16;11.41;87.38
70300;HTU21D;57704;51.112;5.878;2022-12-22T07:14:43;11.39;87.51
70300;HTU21D;57704;51.112;5.878;2022-12-22T07:17:09;11.34;87.57
70300;HTU21D;57704;51.112;5.878;2022-12-22T07:19:35;11.36;87.70
70300;HTU21D;57704;51.112;5.878;2022-12-22T07:22:01;11.31;87.77
70300;HTU21D;57704;51.112;5.878;2022-12-22T07:24:27;11.31;87.87
70300;HTU21D;57704;51.112;5.878;2022-12-22T07:26:54;11.29;87.78
70300;HTU21D;57704;51.112;5.878;2022-12-22T07:29:20;11.25;87.86
70300;HTU21D;57704;51.112;5.878;2022-12-22T07:31:46;11.24;88.05
70300;HTU21D;57704;51.112;5.878;2022-12-22T07:34:12;11.24;88.12
70300;HTU21D;57704;51.112;5.878;2022-12-22T07:36:38;11.27;88.22
70300;HTU21D;57704;51.112;5.878;2022-12-22T07:39:05;11.29;88.14
70300;HTU21D;57704;51.112;5.878;2022-12-22T07:41:31;11.30;88.13
70300;HTU21D;57704;51.112;5.878;2022-12-22T07:44:16;11.31;88.04
70300;HTU21D;57704;51.112;5.878;2022-12-22T07:46:42;11.30;87.98
70300;HTU21D;57704;51.112;5.878;2022-12-22T07:49:10;11.31;88.00
70300;HTU21D;57704;51.112;5.878;2022-12-22T07:51:56;11.30;88.02
70300;HTU21D;57704;51.112;5.878;2022-12-22T07:54:22;11.30;88.06
70300;HTU21D;57704;51.112;5.878;2022-12-22T07:56:49;11.34;87.86
70300;HTU21D;57704;51.112;5.878;2022-12-22T07:59:15;11.30;87.95
70300;HTU21D;57704;51.112;5.878;2022-12-22T08:01:42;11.28;88.02
70300;HTU21D;57704;51.112;5.878;2022-12-22T08:04:09;11.29;88.14
70300;HTU21D;57704;51.112;5.878;2022-12-22T08:06:36;11.31;88.00
70300;HTU21D;57704;51.112;5.878;2022-12-22T08:09:04;11.30;88.05
70300;HTU21D;57704;51.112;5.878;2022-12-22T08:11:30;11.30;88.02
70300;HTU21D;57704;51.112;5.878;2022-12-22T08:13:56;11.30;87.93
70300;HTU21D;57704;51.112;5.878;2022-12-22T08:16:22;11.28;88.06
70300;HTU21D;57704;51.112;5.878;2022-12-22T08:18:49;11.27;88.16
70300;HTU21D;57704;51.112;5.878;2022-12-22T08:21:15;11.29;88.20
70300;HTU21D;57704;51.112;5.878;2022-12-22T08:23:41;11.33;88.12
70300;HTU21D;57704;51.112;5.878;2022-12-22T08:26:18;11.36;88.08
70300;HTU21D;57704;51.112;5.878;2022-12-22T08:28:47;11.37;88.06
70300;HTU21D;57704;51.112;5.878;2022-12-22T08:31:15;11.39;87.97
70300;HTU21D;57704;51.112;5.878;2022-12-22T08:33:41;11.39;87.99
70300;HTU21D;57704;51.112;5.878;2022-12-22T08:36:09;11.43;87.93
70300;HTU21D;57704;51.112;5.878;2022-12-22T08:38:38;11.45;87.84
70300;HTU21D;57704;51.112;5.878;2022-12-22T08:41:08;11.43;87.80
70300;HTU21D;57704;51.112;5.878;2022-12-22T08:43:34;11.46;87.90
70300;HTU21D;57704;51.112;5.878;2022-12-22T08:46:00;11.49;87.82
70300;HTU21D;57704;51.112;5.878;2022-12-22T08:48:27;11.49;87.78
70300;HTU21D;57704;51.112;5.878;2022-12-22T08:50:53;11.51;87.49
70300;HTU21D;57704;51.112;5.878;2022-12-22T08:53:21;11.53;87.20
70300;HTU21D;57704;51.112;5.878;2022-12-22T08:55:54;11.46;87.34
70300;HTU21D;57704;51.112;5.878;2022-12-22T08:58:21;11.47;87.44
70300;HTU21D;57704;51.112;5.878;2022-12-22T09:00:50;11.49;87.55
70300;HTU21D;57704;51.112;5.878;2022-12-22T09:03:16;11.54;87.51
70300;HTU21D;57704;51.112;5.878;2022-12-22T09:05:42;11.54;87.21
70300;HTU21D;57704;51.112;5.878;2022-12-22T09:08:08;11.49;87.13
70300;HTU21D;57704;51.112;5.878;2022-12-22T09:10:35;11.52;87.14
70300;HTU21D;57704;51.112;5.878;2022-12-22T09:13:01;11.53;87.03
70300;HTU21D;57704;51.112;5.878;2022-12-22T09:15:27;11.53;86.86
70300;HTU21D;57704;51.112;5.878;2022-12-22T09:17:53;11.49;86.83
70300;HTU21D;57704;51.112;5.878;2022-12-22T09:20:19;11.47;86.75
70300;HTU21D;57704;51.112;5.878;2022-12-22T09:22:45;11.45;86.69
70300;HTU21D;57704;51.112;5.878;2022-12-22T09:25:11;11.40;86.80
70300;HTU21D;57704;51.112;5.878;2022-12-22T09:27:38;11.39;86.88
70300;HTU21D;57704;51.112;5.878;2022-12-22T09:30:05;11.39;86.88
70300;HTU21D;57704;51.112;5.878;2022-12-22T09:32:31;11.40;86.83
70300;HTU21D;57704;51.112;5.878;2022-12-22T09:34:58;11.40;86.93
70300;HTU21D;57704;51.112;5.878;2022-12-22T09:37:28;11.46;86.82
70300;HTU21D;57704;51.112;5.878;2022-12-22T09:39:56;11.46;87.06
70300;HTU21D;57704;51.112;5.878;2022-12-22T09:42:23;11.57;87.03
70300;HTU21D;57704;51.112;5.878;2022-12-22T09:44:50;11.63;86.96
70300;HTU21D;57704;51.112;5.878;2022-12-22T09:47:24;11.75;86.74
70300;HTU21D;57704;51.112;5.878;2022-12-22T09:49:56;11.78;86.24
70300;HTU21D;57704;51.112;5.878;2022-12-22T09:54:56;11.75;85.92
70300;HTU21D;57704;51.112;5.878;2022-12-22T09:57:29;11.71;85.74
70300;HTU21D;57704;51.112;5.878;2022-12-22T10:00:18;11.60;85.55
70300;HTU21D;57704;51.112;5.878;2022-12-22T10:08:15;11.58;85.80
70300;HTU21D;57704;51.112;5.878;2022-12-22T10:10:44;11.75;86.74
70300;HTU21D;57704;51.112;5.878;2022-12-22T10:13:17;11.87;86.08
70300;HTU21D;57704;51.112;5.878;2022-12-22T10:15:46;11.86;85.20
70300;HTU21D;57704;51.112;5.878;2022-12-22T10:20:46;12.04;85.45
70300;HTU21D;57704;51.112;5.878;2022-12-22T10:23:28;12.30;84.85
70300;HTU21D;57704;51.112;5.878;2022-12-22T10:28:32;12.85;83.94
70300;HTU21D;57704;51.112;5.878;2022-12-22T10:31:11;13.17;83.81
70300;HTU21D;57704;51.112;5.878;2022-12-22T10:33:39;13.48;82.91
70300;HTU21D;57704;51.112;5.878;2022-12-22T10:36:06;13.61;81.51
70300;HTU21D;57704;51.112;5.878;2022-12-22T10:38:40;13.55;80.73
70300;HTU21D;57704;51.112;5.878;2022-12-22T10:41:20;13.50;81.06
70300;HTU21D;57704;51.112;5.878;2022-12-22T10:43:50;13.47;80.86
70300;HTU21D;57704;51.112;5.878;2022-12-22T10:46:19;13.47;80.56
70300;HTU21D;57704;51.112;5.878;2022-12-22T10:49:12;13.46;80.62
70300;HTU21D;57704;51.112;5.878;2022-12-22T10:51:47;13.45;80.11
70300;HTU21D;57704;51.112;5.878;2022-12-22T10:54:30;13.25;79.37
70300;HTU21D;57704;51.112;5.878;2022-12-22T10:57:01;12.95;79.61
70300;HTU21D;57704;51.112;5.878;2022-12-22T10:59:29;12.65;80.59
70300;HTU21D;57704;51.112;5.878;2022-12-22T11:02:37;12.53;80.72
70300;HTU21D;57704;51.112;5.878;2022-12-22T11:05:08;12.58;81.25
70300;HTU21D;57704;51.112;5.878;2022-12-22T11:07:39;12.62;81.55
70300;HTU21D;57704;51.112;5.878;2022-12-22T11:10:32;12.85;81.10
70300;HTU21D;57704;51.112;5.878;2022-12-22T11:16:14;12.99;79.69
70300;HTU21D;57704;51.112;5.878;2022-12-22T11:19:10;12.86;79.78
70300;HTU21D;57704;51.112;5.878;2022-12-22T11:22:17;12.66;79.77
70300;HTU21D;57704;51.112;5.878;2022-12-22T11:30:13;12.42;80.33
70300;HTU21D;57704;51.112;5.878;2022-12-22T11:33:18;12.43;79.78
70300;HTU21D;57704;51.112;5.878;2022-12-22T11:36:00;12.38;80.02
70300;HTU21D;57704;51.112;5.878;2022-12-22T11:46:31;12.69;79.90
70300;HTU21D;57704;51.112;5.878;2022-12-22T11:49:29;12.66;79.40
70300;HTU21D;57704;51.112;5.878;2022-12-22T12:11:42;13.76;77.76
70300;HTU21D;57704;51.112;5.878;2022-12-22T12:22:47;14.45;74.97
70300;HTU21D;57704;51.112;5.878;2022-12-22T12:28:23;13.67;75.63
70300;HTU21D;57704;51.112;5.878;2022-12-22T12:30:58;13.46;75.81
70300;HTU21D;57704;51.112;5.878;2022-12-22T12:33:41;13.32;76.18
70300;HTU21D;57704;51.112;5.878;2022-12-22T12:41:31;13.38;76.12
70300;HTU21D;57704;51.112;5.878;2022-12-22T12:44:01;13.27;75.41
70300;HTU21D;57704;51.112;5.878;2022-12-22T12:46:55;12.99;76.12
70300;HTU21D;57704;51.112;5.878;2022-12-22T12:52:11;12.57;76.95
70300;HTU21D;57704;51.112;5.878;2022-12-22T12:54:45;12.46;77.47
70300;HTU21D;57704;51.112;5.878;2022-12-22T12:57:26;12.37;77.15
70300;HTU21D;57704;51.112;5.878;2022-12-22T12:59:58;12.22;77.27
70300;HTU21D;57704;51.112;5.878;2022-12-22T13:02:34;12.12;77.98
70300;HTU21D;57704;51.112;5.878;2022-12-22T13:05:09;12.07;78.06
70300;HTU21D;57704;51.112;5.878;2022-12-22T13:08:07;12.12;78.42
70300;HTU21D;57704;51.112;5.878;2022-12-22T13:21:11;12.20;76.31
70300;HTU21D;57704;51.112;5.878;2022-12-22T13:26:16;11.89;76.47
70300;HTU21D;57704;51.112;5.878;2022-12-22T13:28:53;11.78;76.42
70300;HTU21D;57704;51.112;5.878;2022-12-22T13:36:53;11.70;76.78
70300;HTU21D;57704;51.112;5.878;2022-12-22T13:39:20;11.69;76.63
70300;HTU21D;57704;51.112;5.878;2022-12-22T13:41:49;11.69;76.89
70300;HTU21D;57704;51.112;5.878;2022-12-22T13:44:28;11.70;76.92
70300;HTU21D;57704;51.112;5.878;2022-12-22T13:47:06;11.72;76.85
70300;HTU21D;57704;51.112;5.878;2022-12-22T13:49:40;11.72;76.79
70300;HTU21D;57704;51.112;5.878;2022-12-22T13:52:14;11.72;76.96
70300;HTU21D;57704;51.112;5.878;2022-12-22T13:54:45;11.74;77.15
70300;HTU21D;57704;51.112;5.878;2022-12-22T13:57:19;11.78;76.78
70300;HTU21D;57704;51.112;5.878;2022-12-22T13:59:49;11.77;77.11
70300;HTU21D;57704;51.112;5.878;2022-12-22T14:02:20;11.79;77.04
70300;HTU21D;57704;51.112;5.878;2022-12-22T14:05:05;11.82;76.93
70300;HTU21D;57704;51.112;5.878;2022-12-22T14:07:32;11.82;76.74
70300;HTU21D;57704;51.112;5.878;2022-12-22T14:09:59;11.75;76.97
70300;HTU21D;57704;51.112;5.878;2022-12-22T14:12:39;11.77;77.26
70300;HTU21D;57704;51.112;5.878;2022-12-22T14:15:15;11.81;76.63
70300;HTU21D;57704;51.112;5.878;2022-12-22T14:17:50;11.75;76.75
70300;HTU21D;57704;51.112;5.878;2022-12-22T14:20:37;11.75;76.74
70300;HTU21D;57704;51.112;5.878;2022-12-22T14:23:21;11.68;76.66
70300;HTU21D;57704;51.112;5.878;2022-12-22T14:25:52;11.60;76.97
70300;HTU21D;57704;51.112;5.878;2022-12-22T14:28:27;11.57;77.43
70300;HTU21D;57704;51.112;5.878;2022-12-22T14:30:57;11.58;77.05
70300;HTU21D;57704;51.112;5.878;2022-12-22T14:36:05;11.59;77.55
70300;HTU21D;57704;51.112;5.878;2022-12-22T14:38:45;11.64;77.30
70300;HTU21D;57704;51.112;5.878;2022-12-22T14:41:22;11.56;77.36
70300;HTU21D;57704;51.112;5.878;2022-12-22T14:44:42;11.44;77.92
70300;HTU21D;57704;51.112;5.878;2022-12-22T14:49:46;11.16;79.22
70300;HTU21D;57704;51.112;5.878;2022-12-22T14:52:42;11.08;80.01
70300;HTU21D;57704;51.112;5.878;2022-12-22T14:55:30;10.97;80.52
70300;HTU21D;57704;51.112;5.878;2022-12-22T15:00:45;10.89;81.20
70300;HTU21D;57704;51.112;5.878;2022-12-22T15:03:31;10.89;81.53
70300;HTU21D;57704;51.112;5.878;2022-12-22T15:08:51;10.87;81.81
70300;HTU21D;57704;51.112;5.878;2022-12-22T15:11:21;10.80;82.08
70300;HTU21D;57704;51.112;5.878;2022-12-22T15:13:49;10.75;82.55
70300;HTU21D;57704;51.112;5.878;2022-12-22T15:16:18;10.72;82.82
70300;HTU21D;57704;51.112;5.878;2022-12-22T15:18:46;10.69;83.06
70300;HTU21D;57704;51.112;5.878;2022-12-22T15:21:15;10.70;83.19
70300;HTU21D;57704;51.112;5.878;2022-12-22T15:23:42;10.68;83.29
70300;HTU21D;57704;51.112;5.878;2022-12-22T15:26:09;10.64;83.54
70300;HTU21D;57704;51.112;5.878;2022-12-22T15:28:35;10.66;83.68
70300;HTU21D;57704;51.112;5.878;2022-12-22T15:31:04;10.59;83.93
70300;HTU21D;57704;51.112;5.878;2022-12-22T15:33:31;10.57;84.14
70300;HTU21D;57704;51.112;5.878;2022-12-22T15:35:57;10.57;84.39
70300;HTU21D;57704;51.112;5.878;2022-12-22T15:38:24;10.57;84.58
70300;HTU21D;57704;51.112;5.878;2022-12-22T15:40:51;10.52;84.72
70300;HTU21D;57704;51.112;5.878;2022-12-22T15:43:17;10.52;85.06
70300;HTU21D;57704;51.112;5.878;2022-12-22T15:45:47;10.54;84.87
70300;HTU21D;57704;51.112;5.878;2022-12-22T15:48:21;10.54;85.02
70300;HTU21D;57704;51.112;5.878;2022-12-22T15:50:48;10.54;85.12
70300;HTU21D;57704;51.112;5.878;2022-12-22T15:53:17;10.55;85.21
70300;HTU21D;57704;51.112;5.878;2022-12-22T15:55:48;10.50;85.40
70300;HTU21D;57704;51.112;5.878;2022-12-22T15:58:17;10.53;85.51
70300;HTU21D;57704;51.112;5.878;2022-12-22T16:00:45;10.55;85.69
70300;HTU21D;57704;51.112;5.878;2022-12-22T16:03:11;10.59;85.82
70300;HTU21D;57704;51.112;5.878;2022-12-22T16:05:40;10.63;85.87
70300;HTU21D;57704;51.112;5.878;2022-12-22T16:08:20;10.65;86.06
70300;HTU21D;57704;51.112;5.878;2022-12-22T16:10:48;10.71;86.04
70300;HTU21D;57704;51.112;5.878;2022-12-22T16:13:15;10.71;86.14
70300;HTU21D;57704;51.112;5.878;2022-12-22T16:15:41;10.77;86.25
70300;HTU21D;57704;51.112;5.878;2022-12-22T16:18:10;10.82;86.25
70300;HTU21D;57704;51.112;5.878;2022-12-22T16:20:42;10.85;86.43
70300;HTU21D;57704;51.112;5.878;2022-12-22T16:23:19;10.87;86.32
70300;HTU21D;57704;51.112;5.878;2022-12-22T16:25:46;10.87;86.49
70300;HTU21D;57704;51.112;5.878;2022-12-22T16:28:23;10.93;86.45
70300;HTU21D;57704;51.112;5.878;2022-12-22T16:30:50;10.92;86.54
70300;HTU21D;57704;51.112;5.878;2022-12-22T16:33:17;10.95;86.48
70300;HTU21D;57704;51.112;5.878;2022-12-22T16:35:43;10.96;86.54
70300;HTU21D;57704;51.112;5.878;2022-12-22T16:38:10;11.00;86.61
70300;HTU21D;57704;51.112;5.878;2022-12-22T16:40:44;11.03;86.63
70300;HTU21D;57704;51.112;5.878;2022-12-22T16:45:48;11.03;86.67
70300;HTU21D;57704;51.112;5.878;2022-12-22T16:48:20;11.04;86.67
70300;HTU21D;57704;51.112;5.878;2022-12-22T16:50:47;11.05;86.70
70300;HTU21D;57704;51.112;5.878;2022-12-22T16:53:14;11.07;86.81
70300;HTU21D;57704;51.112;5.878;2022-12-22T16:55:40;11.09;86.80
70300;HTU21D;57704;51.112;5.878;2022-12-22T16:58:09;11.10;86.74
70300;HTU21D;57704;51.112;5.878;2022-12-22T17:00:37;11.11;86.84
70300;HTU21D;57704;51.112;5.878;2022-12-22T17:03:14;11.14;86.87
70300;HTU21D;57704;51.112;5.878;2022-12-22T17:05:45;11.14;86.79
70300;HTU21D;57704;51.112;5.878;2022-12-22T17:08:25;11.16;86.54
70300;HTU21D;57704;51.112;5.878;2022-12-22T17:10:54;11.13;86.64
70300;HTU21D;57704;51.112;5.878;2022-12-22T17:13:21;11.11;86.76
70300;HTU21D;57704;51.112;5.878;2022-12-22T17:15:47;11.10;86.90
70300;HTU21D;57704;51.112;5.878;2022-12-22T17:18:19;11.08;86.84
70300;HTU21D;57704;51.112;5.878;2022-12-22T17:20:48;11.08;86.88
70300;HTU21D;57704;51.112;5.878;2022-12-22T17:23:36;11.09;86.91
70300;HTU21D;57704;51.112;5.878;2022-12-22T17:26:07;11.12;86.94
70300;HTU21D;57704;51.112;5.878;2022-12-22T17:28:36;11.14;86.96
70300;HTU21D;57704;51.112;5.878;2022-12-22T17:31:03;11.15;86.86
70300;HTU21D;57704;51.112;5.878;2022-12-22T17:33:29;11.17;86.90
70300;HTU21D;57704;51.112;5.878;2022-12-22T17:35:58;11.18;86.80
70300;HTU21D;57704;51.112;5.878;2022-12-22T17:38:25;11.19;86.91
70300;HTU21D;57704;51.112;5.878;2022-12-22T17:40:52;11.24;86.84
70300;HTU21D;57704;51.112;5.878;2022-12-22T17:43:20;11.22;86.80
70300;HTU21D;57704;51.112;5.878;2022-12-22T17:45:47;11.20;86.82
70300;HTU21D;57704;51.112;5.878;2022-12-22T17:48:15;11.23;86.77
70300;HTU21D;57704;51.112;5.878;2022-12-22T17:50:44;11.25;86.83
70300;HTU21D;57704;51.112;5.878;2022-12-22T17:53:18;11.25;86.73
70300;HTU21D;57704;51.112;5.878;2022-12-22T17:55:46;11.24;86.96